Time;durP1;ratioP1;P1;durP2;ratioP2;P2;SDS_P1;SDS_P2;PMS_P1;PMS_P2;Temp;Humidity;BMP_temperature;BMP_pressure;BME280_temperature;BME280_humidity;BME280_pressure;Samples;Min_cycle;Max_cycle;Signal;HPM_P1;HPM_P2
2022/07/15 00:00:38;;;;;;;5.85;1.35;;;;;;;18.11;49.23;98866.48;1807321;79;20976;-41
2022/07/15 00:03:04;;;;;;;5.90;1.40;;;;;;;18.13;48.89;98867.17;1807151;79;20952;-43
2022/07/15 00:05:30;;;;;;;5.53;2.00;;;;;;;18.12;49.07;98866.84;1807361;79;20983;-46
2022/07/15 00:07:58;;;;;;;4.00;1.60;;;;;;;17.98;49.80;98868.13;1807220;79;21010;-41
2022/07/15 00:10:23;;;;;;;7.10;1.75;;;;;;;17.90;49.82;98873.33;1807081;79;21135;-42
2022/07/15 00:12:53;;;;;;;5.37;1.50;;;;;;;17.93;49.34;98858.39;1807253;79;21023;-40
2022/07/15 00:15:22;;;;;;;4.83;1.75;;;;;;;17.88;49.71;98860.63;1806906;79;20979;-43
2022/07/15 00:17:48;;;;;;;6.78;1.70;;;;;;;17.86;49.95;98862.59;1807216;79;21514;-40
2022/07/15 00:20:15;;;;;;;4.53;1.52;;;;;;;17.80;50.78;98866.63;1807232;79;21010;-41
2022/07/15 00:22:43;;;;;;;3.52;2.02;;;;;;;17.75;50.37;98864.05;1807348;79;20983;-43
2022/07/15 00:25:09;;;;;;;6.28;1.60;;;;;;;17.77;50.05;98863.42;1807322;78;21591;-41
2022/07/15 00:27:36;;;;;;;4.20;1.60;;;;;;;17.70;50.46;98861.84;1807464;79;21014;-42
2022/07/15 00:30:04;;;;;;;3.20;1.52;;;;;;;17.65;50.79;98867.56;1807289;79;20983;-44
2022/07/15 00:32:30;;;;;;;3.15;1.37;;;;;;;17.58;50.88;98870.92;1807171;79;20984;-40
2022/07/15 00:34:56;;;;;;;3.70;1.55;;;;;;;17.60;50.69;98875.11;1807203;79;21027;-43
2022/07/15 00:37:21;;;;;;;4.50;1.42;;;;;;;17.49;51.34;98869.11;1807218;79;20987;-43
2022/07/15 00:39:47;;;;;;;3.42;1.65;;;;;;;17.39;51.47;98864.63;1795384;79;21055;-42
2022/07/15 00:42:43;;;;;;;4.72;1.52;;;;;;;17.32;52.67;98861.30;1791968;80;20983;-39
2022/07/15 00:44:41;;;;;;;3.60;1.55;;;;;;;17.30;52.04;98852.64;1787181;80;21054;-43
2022/07/15 00:47:07;;;;;;;4.12;1.85;;;;;;;17.26;52.15;98855.59;1791992;80;20967;-41
2022/07/15 00:49:33;;;;;;;7.83;2.05;;;;;;;17.20;53.10;98847.32;1792057;80;21124;-41
2022/07/15 00:52:02;;;;;;;5.97;1.57;;;;;;;17.12;53.06;98849.34;1791991;80;20998;-45
2022/07/15 00:54:28;;;;;;;3.12;1.42;;;;;;;17.17;52.41;98853.77;1791980;80;21504;-41
2022/07/15 00:56:56;;;;;;;4.22;1.70;;;;;;;17.05;53.45;98856.19;1794302;80;20987;-44
2022/07/15 00:59:27;;;;;;;3.10;1.47;;;;;;;17.07;52.44;98851.57;1794466;80;20986;-45
2022/07/15 01:01:53;;;;;;;5.50;1.45;;;;;;;17.06;53.03;98848.55;1794174;80;20983;-44
2022/07/15 01:04:22;;;;;;;3.47;1.75;;;;;;;17.08;52.85;98855.89;1794499;80;20968;-40
2022/07/15 01:06:48;;;;;;;5.75;1.90;;;;;;;17.05;53.05;98858.84;1794580;80;21460;-43
2022/07/15 01:09:14;;;;;;;6.55;1.70;;;;;;;16.96;53.84;98862.31;1794562;80;21139;-41
2022/07/15 01:11:40;;;;;;;5.62;1.90;;;;;;;16.92;53.59;98862.21;1794449;80;21034;-42
2022/07/15 01:14:06;;;;;;;5.67;1.67;;;;;;;16.95;53.69;98861.45;1794503;80;20990;-43
2022/07/15 01:16:32;;;;;;;9.38;2.25;;;;;;;16.96;53.75;98853.02;1763773;80;20987;-46
2022/07/15 01:18:58;;;;;;;4.05;2.10;;;;;;;16.93;53.92;98855.44;1794523;80;21456;-44
2022/07/15 01:21:23;;;;;;;7.60;2.22;;;;;;;16.89;54.68;98852.22;1794008;80;21018;-42
2022/07/15 01:23:49;;;;;;;6.58;2.30;;;;;;;16.80;54.64;98855.66;1794531;80;21002;-44
2022/07/15 01:26:16;;;;;;;4.08;2.00;;;;;;;16.79;54.39;98855.32;1794463;80;20996;-39
2022/07/15 01:28:42;;;;;;;7.70;2.10;;;;;;;16.79;54.41;98859.77;1794589;80;21480;-43
2022/07/15 01:31:08;;;;;;;6.33;2.55;;;;;;;16.75;54.63;98861.85;1794853;80;21041;-42
2022/07/15 01:33:36;;;;;;;9.48;2.62;;;;;;;16.76;54.57;98865.37;1794499;80;21030;-47
2022/07/15 01:36:02;;;;;;;;;;;;;;;16.76;54.84;98870.19;1797201;80;20987;-44
2022/07/15 01:38:29;;;;;;;7.03;2.58;;;;;;;16.71;56.67;98871.06;1794501;80;20104;-42
2022/07/15 01:40:55;;;;;;;7.10;2.67;;;;;;;16.73;55.14;98862.98;1794696;80;20955;-41
2022/07/15 01:43:22;;;;;;;9.70;2.77;;;;;;;16.70;55.56;98866.25;1794751;80;20995;-43
2022/07/15 01:45:48;;;;;;;5.73;2.93;;;;;;;16.67;55.64;98863.03;1794816;80;21026;-44
2022/07/15 01:51:01;;;;;;;6.92;2.90;;;;;;;16.62;56.11;98863.91;1794493;80;21409;-39
2022/07/15 01:53:28;;;;;;;6.03;2.40;;;;;;;16.58;55.82;98862.01;1794411;80;20991;-43
2022/07/15 01:55:54;;;;;;;4.50;2.65;;;;;;;16.60;56.01;98865.37;1792180;80;21651;-43
2022/07/15 01:58:21;;;;;;;9.93;2.85;;;;;;;16.60;55.95;98868.52;1788740;80;20991;-42
2022/07/15 02:00:49;;;;;;;4.47;2.40;;;;;;;16.63;55.64;98866.94;1788642;80;20983;-41
2022/07/15 02:03:15;;;;;;;7.28;2.17;;;;;;;16.59;56.08;98865.50;1788631;80;20995;-43
2022/07/15 02:05:41;;;;;;;4.95;1.95;;;;;;;16.61;55.76;98871.54;1788643;80;21433;-45
2022/07/15 02:08:07;;;;;;;8.35;2.35;;;;;;;16.63;55.83;98873.57;1788564;80;20987;-41
2022/07/15 02:10:39;;;;;;;3.67;2.00;;;;;;;16.60;56.03;98869.84;1788609;80;21022;-39
2022/07/15 02:13:11;;;;;;;6.58;2.20;;;;;;;16.57;56.15;98872.75;1788658;80;20991;-40
2022/07/15 02:15:39;;;;;;;6.55;2.30;;;;;;;16.52;56.64;98878.48;1788620;80;20979;-40
2022/07/15 02:18:06;;;;;;;5.30;2.15;;;;;;;16.47;57.10;98878.03;1788608;80;21413;-41
2022/07/15 02:20:33;;;;;;;3.45;1.90;;;;;;;16.44;56.94;98884.42;1788684;80;20975;-44
2022/07/15 02:23:01;;;;;;;4.28;2.42;;;;;;;16.40;57.36;98883.02;1788744;80;20975;-40
2022/07/15 02:25:31;;;;;;;9.95;2.72;;;;;;;16.31;57.95;98891.27;1788701;80;20968;-40
2022/07/15 02:28:00;;;;;;;10.48;3.70;;;;;;;16.26;58.17;98887.34;1788626;80;20987;-43
2022/07/15 02:30:31;;;;;;;12.58;4.58;;;;;;;16.19;58.57;98883.52;1788630;80;20991;-43
2022/07/15 02:32:57;;;;;;;14.05;5.30;;;;;;;16.20;58.21;98883.89;1788547;80;21480;-39
2022/07/15 02:35:23;;;;;;;8.83;5.28;;;;;;;16.13;59.12;98886.22;1788628;80;21034;-46
2022/07/15 02:37:50;;;;;;;16.45;7.60;;;;;;;16.11;58.69;98892.14;1788634;80;21341;-43
2022/07/15 02:42:55;;;;;;;22.30;8.48;;;;;;;16.05;59.00;98892.17;1765809;79;21571;-43
2022/07/15 02:45:24;;;;;;;18.05;9.58;;;;;;;16.05;58.67;98891.34;1791861;80;20988;-41
2022/07/15 02:47:51;;;;;;;21.15;8.73;;;;;;;16.00;59.58;98889.56;1792149;80;21499;-50
2022/07/15 02:50:18;;;;;;;20.00;10.00;;;;;;;16.00;59.27;98889.06;1792352;80;20987;-43
2022/07/15 02:52:45;;;;;;;25.52;11.18;;;;;;;15.98;59.66;98885.70;1792431;80;20995;-42
2022/07/15 02:55:12;;;;;;;26.30;10.85;;;;;;;15.98;59.64;98891.50;1792426;80;21034;-42
2022/07/15 02:57:39;;;;;;;19.00;9.45;;;;;;;15.96;59.77;98892.12;1792238;80;20990;-43
2022/07/15 03:00:09;;;;;;;15.53;8.13;;;;;;;16.01;59.37;98900.50;1792491;80;20995;-41
2022/07/15 03:02:35;;;;;;;15.08;7.15;;;;;;;16.01;59.35;98899.18;1792256;80;21861;-39
2022/07/15 03:05:01;;;;;;;8.88;5.72;;;;;;;15.99;59.46;98896.69;1792506;80;20991;-41
2022/07/15 03:07:28;;;;;;;5.30;3.12;;;;;;;15.99;59.07;98895.81;1792003;80;20999;-42
2022/07/15 03:09:55;;;;;;;6.08;2.75;;;;;;;16.02;59.07;98900.38;1770073;80;21078;-42
2022/07/15 03:12:21;;;;;;;3.80;2.07;;;;;;;15.98;59.61;98906.92;1792510;80;21464;-38
2022/07/15 03:14:47;;;;;;;5.72;1.92;;;;;;;15.97;59.27;98906.58;1792203;80;20987;-40
2022/07/15 03:17:13;;;;;;;7.33;2.02;;;;;;;15.97;58.97;98909.70;1792163;80;21041;-40
2022/07/15 03:19:40;;;;;;;3.90;1.40;;;;;;;15.95;58.80;98909.81;1792224;80;20952;-39
2022/07/15 03:22:06;;;;;;;5.58;1.87;;;;;;;15.91;59.92;98908.40;1792224;80;21508;-40
2022/07/15 03:24:31;;;;;;;4.65;1.72;;;;;;;15.84;59.62;98905.41;1792218;80;21436;-41
2022/07/15 03:26:58;;;;;;;5.92;1.40;;;;;;;15.84;59.47;98915.19;1792181;80;20979;-42
2022/07/15 03:29:24;;;;;;;7.80;1.95;;;;;;;15.84;59.42;98919.16;1792152;80;21095;-41
2022/07/15 03:31:50;;;;;;;4.28;1.62;;;;;;;15.78;59.44;98921.84;1792328;80;20980;-43
2022/07/15 03:34:17;;;;;;;7.72;1.52;;;;;;;15.73;59.91;98923.98;1792446;80;20987;-43
2022/07/15 03:36:42;;;;;;;3.55;1.47;;;;;;;15.67;60.12;98920.04;1792433;80;21464;-41
2022/07/15 03:39:09;;;;;;;3.85;1.92;;;;;;;15.66;60.10;98929.44;1792435;80;20980;-41
2022/07/15 03:41:35;;;;;;;4.20;1.40;;;;;;;15.59;60.73;98926.47;1792338;79;21006;-39
2022/07/15 03:44:02;;;;;;;4.83;1.50;;;;;;;15.60;60.42;98921.51;1792340;80;21033;-41
2022/07/15 03:46:29;;;;;;;5.28;2.00;;;;;;;15.58;60.66;98926.59;1792341;80;21026;-40
2022/07/15 03:48:56;;;;;;;4.87;1.45;;;;;;;15.61;60.52;98932.48;1792428;80;21163;-40
2022/07/15 03:51:24;;;;;;;6.10;1.70;;;;;;;15.63;60.54;98938.50;1792539;80;21511;-40
2022/07/15 03:53:51;;;;;;;4.12;1.40;;;;;;;15.65;60.26;98943.67;1792331;80;20960;-40
2022/07/15 03:56:17;;;;;;;2.92;1.42;;;;;;;15.60;60.37;98943.20;1792353;80;20995;-40
2022/07/15 03:58:46;;;;;;;6.17;1.77;;;;;;;15.56;61.05;98947.91;1792630;80;21551;-40
2022/07/15 04:01:11;;;;;;;4.70;1.60;;;;;;;15.57;60.96;98949.58;1792303;80;20991;-41
2022/07/15 04:03:37;;;;;;;4.85;1.67;;;;;;;15.56;60.92;98954.54;1792317;80;20983;-42
2022/07/15 04:06:04;;;;;;;4.28;1.60;;;;;;;15.54;61.04;98951.17;1792280;80;20991;-44
2022/07/15 04:08:29;;;;;;;7.47;1.60;;;;;;;15.56;61.13;98958.52;1792308;80;21493;-42
2022/07/15 04:10:56;;;;;;;6.35;1.90;;;;;;;15.56;61.36;98958.52;1788733;80;20954;-41
2022/07/15 04:13:22;;;;;;;3.80;1.42;;;;;;;15.60;61.03;98953.81;1789345;79;20990;-45
2022/07/15 04:15:48;;;;;;;4.55;1.50;;;;;;;15.60;61.07;98957.29;1789308;80;20981;-39
2022/07/15 04:18:14;;;;;;;5.35;1.60;;;;;;;15.62;60.96;98963.30;1789263;80;20942;-39
2022/07/15 04:20:40;;;;;;;7.30;1.80;;;;;;;15.64;60.65;98967.16;1789281;80;21092;-41
2022/07/15 04:23:06;;;;;;;5.55;1.62;;;;;;;15.62;60.87;98971.25;1789283;80;20986;-45
2022/07/15 04:25:32;;;;;;;5.22;1.62;;;;;;;15.67;60.74;98970.41;1789386;80;21030;-39
2022/07/15 04:27:57;;;;;;;7.92;1.95;;;;;;;15.67;61.05;98982.83;1789215;79;21482;-43
2022/07/15 04:30:23;;;;;;;5.35;1.35;;;;;;;15.65;60.61;98980.30;1789279;80;20970;-45
2022/07/15 04:32:50;;;;;;;7.50;2.30;;;;;;;15.60;61.04;98981.14;1789294;80;21435;-41
2022/07/15 04:35:16;;;;;;;5.57;1.53;;;;;;;15.58;60.95;98985.73;1789587;80;21399;-43
2022/07/15 04:37:42;;;;;;;15.55;1.55;;;;;;;15.55;60.70;98978.02;1789277;80;20965;-39
2022/07/15 04:40:12;;;;;;;7.55;1.57;;;;;;;15.49;60.84;98979.36;1789291;80;20965;-43
2022/07/15 04:42:37;;;;;;;4.70;1.47;;;;;;;15.53;60.93;98987.91;1789146;79;21026;-42
2022/07/15 04:45:04;;;;;;;4.75;1.65;;;;;;;15.50;61.11;98984.20;1789353;80;20974;-45
2022/07/15 04:47:30;;;;;;;7.08;1.52;;;;;;;15.51;61.41;98986.70;1789473;79;21014;-43
2022/07/15 04:52:44;;;;;;;3.30;1.40;;;;;;;15.55;61.59;98988.63;1789328;80;21762;-47
2022/07/15 04:55:11;;;;;;;7.10;1.80;;;;;;;15.59;60.89;98989.22;1789278;80;21447;-41
2022/07/15 04:57:37;;;;;;;13.03;1.80;;;;;;;15.65;60.53;98986.92;1789462;80;21099;-44
2022/07/15 05:00:06;;;;;;;6.70;1.47;;;;;;;15.66;60.40;98988.62;1789270;80;21051;-39
2022/07/15 05:02:32;;;;;;;3.45;1.20;;;;;;;15.78;59.97;98985.95;1789273;80;20974;-47
2022/07/15 05:04:58;;;;;;;3.10;1.30;;;;;;;15.84;60.04;98990.75;1789287;80;20976;-43
2022/07/15 05:07:24;;;;;;;3.37;1.57;;;;;;;15.90;59.46;98995.56;1789231;80;20973;-39
2022/07/15 05:09:50;;;;;;;2.80;1.52;;;;;;;15.98;59.42;98993.60;1789262;80;20969;-39
2022/07/15 05:12:16;;;;;;;4.05;1.55;;;;;;;15.99;59.29;98989.50;1789325;80;21001;-40
2022/07/15 05:14:42;;;;;;;5.47;1.50;;;;;;;15.97;59.04;98994.09;1789359;80;20954;-40
2022/07/15 05:17:08;;;;;;;4.70;1.60;;;;;;;16.07;58.78;99016.22;1789299;80;21448;-37
2022/07/15 05:19:35;;;;;;;7.03;1.50;;;;;;;16.05;58.64;99012.02;1789293;80;21604;-37
2022/07/15 05:22:01;;;;;;;4.83;1.47;;;;;;;16.06;58.76;99018.99;1789228;79;20970;-40
2022/07/15 05:24:27;;;;;;;3.02;1.02;;;;;;;16.02;59.15;99023.70;1789275;80;21006;-41
2022/07/15 05:26:52;;;;;;;2.72;1.30;;;;;;;16.08;58.96;99022.36;1789255;79;20966;-40
2022/07/15 05:29:21;;;;;;;5.62;1.52;;;;;;;16.15;59.07;99028.84;1789246;80;20978;-42
2022/07/15 05:31:46;;;;;;;7.05;1.37;;;;;;;16.21;59.25;99031.47;1789023;80;21047;-41
2022/07/15 05:34:12;;;;;;;3.70;1.20;;;;;;;16.19;59.01;99029.43;1789241;80;20974;-40
2022/07/15 05:36:38;;;;;;;4.55;1.47;;;;;;;16.18;59.10;99033.07;1789180;79;20974;-41
2022/07/15 05:39:03;;;;;;;6.55;1.25;;;;;;;16.12;59.25;99034.42;1765092;80;20957;-41
2022/07/15 05:41:32;;;;;;;6.65;1.45;;;;;;;16.11;59.15;99035.38;1789301;80;21006;-45
2022/07/15 05:43:57;;;;;;;10.68;1.47;;;;;;;16.07;59.61;99034.78;1787187;79;21530;-41
2022/07/15 05:46:23;;;;;;;3.17;1.45;;;;;;;16.04;59.90;99046.13;1787328;80;20978;-42
2022/07/15 05:48:48;;;;;;;4.90;1.12;;;;;;;15.96;60.19;99045.44;1787299;80;21436;-42
2022/07/15 05:51:14;;;;;;;4.78;1.65;;;;;;;15.96;60.22;99039.30;1787237;80;21009;-44
2022/07/15 05:53:40;;;;;;;4.53;1.12;;;;;;;15.95;60.45;99046.88;1787500;80;20971;-42
2022/07/15 05:56:07;;;;;;;4.12;2.33;;;;;;;15.92;60.97;99055.45;1787296;79;20974;-42
2022/07/15 05:58:32;;;;;;;4.40;1.32;;;;;;;15.93;61.13;99056.28;1787567;80;21502;-41
2022/07/15 06:00:58;;;;;;;4.65;1.15;;;;;;;15.84;61.74;99054.38;1787267;80;20982;-38
2022/07/15 06:03:24;;;;;;;2.92;1.72;;;;;;;15.83;62.24;99058.86;1787308;80;21002;-42
2022/07/15 06:05:50;;;;;;;8.63;1.50;;;;;;;15.84;61.97;99067.64;1787273;80;20951;-42
2022/07/15 06:08:16;;;;;;;2.85;1.10;;;;;;;15.89;61.36;99068.12;1787265;80;20966;-38
2022/07/15 06:10:43;;;;;;;4.22;1.12;;;;;;;15.83;61.44;99069.95;1787277;80;20966;-40
2022/07/15 06:13:08;;;;;;;2.15;1.07;;;;;;;15.85;61.28;99071.99;1786939;79;20966;-42
2022/07/15 06:15:34;;;;;;;4.95;1.37;;;;;;;15.96;61.23;99072.45;1757238;80;21486;-41
2022/07/15 06:18:00;;;;;;;4.58;1.07;;;;;;;16.04;61.16;99074.81;1754744;81;21443;-42
2022/07/15 06:20:26;;;;;;;4.75;1.05;;;;;;;16.14;60.56;99086.03;1754627;81;20967;-42
2022/07/15 06:22:52;;;;;;;3.62;1.17;;;;;;;16.09;60.17;99085.90;1754600;82;20978;-44
2022/07/15 06:25:18;;;;;;;5.08;1.12;;;;;;;16.07;59.96;99076.39;1754597;81;20978;-42
2022/07/15 06:27:44;;;;;;;2.45;1.20;;;;;;;16.07;60.01;99079.05;1754598;82;21014;-42
2022/07/15 06:30:10;;;;;;;4.47;1.07;;;;;;;16.17;59.96;99080.45;1754666;81;21445;-38
2022/07/15 06:32:36;;;;;;;8.00;1.42;;;;;;;16.28;59.67;99084.39;1739895;81;20982;-43
2022/07/15 06:35:04;;;;;;;3.55;1.10;;;;;;;16.24;60.34;99080.30;1740618;82;20955;-38
2022/07/15 06:37:29;;;;;;;;;;;;;;;16.30;59.56;99091.77;1744210;82;21039;-39
2022/07/15 06:39:55;;;;;;;4.78;1.60;;;;;;;16.28;59.15;99094.54;1741461;82;20120;-44
2022/07/15 06:42:24;;;;;;;5.75;1.20;;;;;;;16.29;59.08;99091.39;1742540;82;21034;-44
2022/07/15 06:44:50;;;;;;;6.35;1.60;;;;;;;16.25;59.32;99097.92;1750905;82;20978;-42
2022/07/15 06:47:16;;;;;;;4.35;1.32;;;;;;;16.19;59.76;99094.43;1750886;82;21467;-41
2022/07/15 06:49:41;;;;;;;3.08;1.30;;;;;;;16.25;59.56;99102.73;1750989;81;21511;-39
2022/07/15 06:52:08;;;;;;;5.40;1.17;;;;;;;16.29;59.39;99100.67;1750483;81;21516;-38
2022/07/15 06:54:33;;;;;;;9.73;1.27;;;;;;;16.32;59.26;99099.11;1714841;83;20980;-44
2022/07/15 06:57:01;;;;;;;6.62;1.10;;;;;;;16.29;56.60;99102.00;1741379;82;21493;-40
2022/07/15 06:59:26;;;;;;;;;;;;;;;16.37;56.08;99102.69;1712888;84;21454;-45
2022/07/15 07:01:52;;;;;;;7.00;1.00;;;;;;;16.40;55.86;99113.06;1742242;82;20159;-46
2022/07/15 07:04:19;;;;;;;5.95;1.02;;;;;;;16.51;56.57;99107.70;1741302;82;21611;-40
2022/07/15 07:06:45;;;;;;;2.35;0.95;;;;;;;16.57;54.71;99109.01;1742086;82;20999;-43
2022/07/15 07:09:12;;;;;;;2.92;0.80;;;;;;;16.53;50.81;99119.53;1742333;81;21469;-42
2022/07/15 07:11:39;;;;;;;4.55;0.80;;;;;;;16.50;51.11;99113.52;1742174;82;21019;-39
2022/07/15 07:14:06;;;;;;;3.00;1.20;;;;;;;16.59;51.33;99122.98;1738841;80;21697;-39
2022/07/15 07:16:33;;;;;;;3.52;1.20;;;;;;;16.62;51.04;99113.45;1711053;83;21449;-45
2022/07/15 07:18:59;;;;;;;4.03;1.00;;;;;;;16.64;51.77;99119.47;1711257;82;21167;-44
2022/07/15 07:21:25;;;;;;;8.20;0.95;;;;;;;16.70;52.17;99115.00;1710979;84;21069;-42
2022/07/15 07:23:52;;;;;;;4.60;1.02;;;;;;;16.70;52.42;99125.13;1711139;83;21020;-37
2022/07/15 07:26:18;;;;;;;7.03;1.40;;;;;;;16.72;52.76;99125.00;1711188;84;20988;-44
2022/07/15 07:28:44;;;;;;;5.55;1.20;;;;;;;16.76;52.72;99130.41;1710923;83;20991;-38
2022/07/15 07:31:13;;;;;;;6.22;1.10;;;;;;;16.77;53.10;99133.44;1732285;80;21393;-41
2022/07/15 07:33:40;;;;;;;3.92;1.05;;;;;;;16.81;53.35;99126.89;1783326;80;20962;-37
2022/07/15 07:36:07;;;;;;;7.90;1.37;;;;;;;16.88;52.50;99132.07;1783762;80;20974;-40
2022/07/15 07:38:35;;;;;;;2.27;1.15;;;;;;;16.88;52.50;99132.07;1783453;80;21492;-41
2022/07/15 07:41:03;;;;;;;6.15;1.02;;;;;;;17.02;52.50;99140.19;1783490;80;20962;-42
2022/07/15 07:43:29;;;;;;;3.22;0.78;;;;;;;17.06;52.38;99142.09;1737997;80;21489;-44
2022/07/15 07:45:55;;;;;;;1.37;0.80;;;;;;;17.05;52.21;99141.76;1732479;81;21394;-41
2022/07/15 07:48:21;;;;;;;6.47;1.30;;;;;;;17.14;51.38;99138.32;1734448;83;21018;-41
2022/07/15 07:50:48;;;;;;;5.62;1.07;;;;;;;17.20;51.31;99140.44;1734332;81;21453;-38
2022/07/15 07:53:14;;;;;;;5.67;0.80;;;;;;;17.38;50.59;99148.66;1734592;81;20975;-42
2022/07/15 07:55:40;;;;;;;2.75;0.80;;;;;;;17.43;49.94;99151.77;1734183;83;20990;-43
2022/07/15 07:58:06;;;;;;;2.72;1.00;;;;;;;17.53;49.83;99143.00;1734243;82;20991;-41
2022/07/15 08:00:32;;;;;;;4.42;1.05;;;;;;;17.58;49.92;99150.92;1734244;81;20959;-42
2022/07/15 08:03:00;;;;;;;7.17;0.95;;;;;;;17.64;49.56;99141.11;1734500;83;20994;-39
2022/07/15 08:05:27;;;;;;;8.33;1.07;;;;;;;17.77;49.84;99149.32;1734266;83;20963;-37
2022/07/15 08:08:12;;;;;;;4.85;0.90;;;;;;;17.80;49.32;99150.39;1734390;81;20975;-41
2022/07/15 08:10:40;;;;;;;6.30;0.95;;;;;;;17.96;48.87;99163.23;1734367;83;21023;-40
2022/07/15 08:13:06;;;;;;;7.33;1.30;;;;;;;18.05;48.26;99157.59;1734280;81;20944;-44
2022/07/15 08:15:32;;;;;;;4.58;1.50;;;;;;;18.07;47.47;99152.97;1734136;81;20979;-42
2022/07/15 08:17:58;;;;;;;3.90;1.10;;;;;;;18.15;47.46;99154.44;1734269;81;20967;-42
2022/07/15 08:20:24;;;;;;;3.70;1.02;;;;;;;18.28;47.26;99155.05;1734014;81;20975;-42
2022/07/15 08:22:57;;;;;;;3.75;0.80;;;;;;;18.31;46.84;99156.08;1734142;81;21034;-45
2022/07/15 08:25:18;;;;;;;9.68;1.27;;;;;;;18.31;46.79;99173.89;1732967;81;21003;-41
2022/07/15 08:27:44;;;;;;;3.60;0.90;;;;;;;18.24;45.80;99166.92;1734622;81;20979;-46
2022/07/15 08:30:10;;;;;;;8.60;0.88;;;;;;;18.40;46.27;99166.41;1734276;83;21159;-44
2022/07/15 08:32:36;;;;;;;7.80;0.90;;;;;;;18.51;46.57;99176.09;1734221;81;20986;-48
2022/07/15 08:35:02;;;;;;;7.72;1.10;;;;;;;18.66;45.84;99168.03;1734312;81;21023;-45
2022/07/15 08:37:28;;;;;;;2.67;1.00;;;;;;;18.91;46.27;99164.00;1734202;82;20979;-39
2022/07/15 08:39:54;;;;;;;13.55;1.37;;;;;;;19.10;45.25;99175.61;1734199;83;21027;-42
2022/07/15 08:42:20;;;;;;;6.58;1.10;;;;;;;19.15;44.86;99183.53;1734299;81;20987;-45
2022/07/15 08:44:46;;;;;;;8.18;0.90;;;;;;;19.25;44.23;99183.53;1750250;81;21396;-38
2022/07/15 08:47:12;;;;;;;25.20;1.87;;;;;;;19.15;43.93;99176.87;1747389;80;21337;-43
2022/07/15 08:49:39;;;;;;;3.58;1.00;;;;;;;19.21;44.38;99170.63;1747552;81;20979;-39
2022/07/15 08:52:06;;;;;;;3.12;0.78;;;;;;;19.18;43.39;99187.25;1747598;82;20995;-43
2022/07/15 08:54:32;;;;;;;11.65;0.90;;;;;;;19.27;43.03;99178.06;1747179;81;20959;-41
2022/07/15 08:56:59;;;;;;;5.70;1.00;;;;;;;19.04;41.90;99171.70;1747361;82;21025;-43
2022/07/15 08:59:25;;;;;;;4.40;0.95;;;;;;;19.06;42.79;99196.38;1747755;82;20971;-42
2022/07/15 09:01:53;;;;;;;10.90;1.00;;;;;;;18.92;42.70;99182.18;1747222;82;20978;-41
2022/07/15 09:04:19;;;;;;;7.05;0.70;;;;;;;18.93;43.03;99181.18;1771995;81;21429;-39
2022/07/15 09:06:49;;;;;;;13.72;0.70;;;;;;;19.20;41.97;99182.28;1778582;80;21467;-39
2022/07/15 09:09:34;;;;;;;10.32;1.00;;;;;;;19.43;41.03;99184.98;1778226;80;20943;-50
2022/07/15 09:12:11;;;;;;;7.95;1.42;;;;;;;19.55;41.16;99189.16;1778423;80;20977;-47
2022/07/15 09:14:41;;;;;;;8.78;1.12;;;;;;;19.74;40.56;99176.77;1778444;81;21471;-42
2022/07/15 09:17:12;;;;;;;7.03;1.07;;;;;;;19.87;39.93;99185.27;1778190;80;20924;-41
2022/07/15 09:19:58;;;;;;;6.42;0.88;;;;;;;20.00;38.91;99186.77;1778345;80;20950;-40
2022/07/15 09:22:27;;;;;;;5.85;0.70;;;;;;;20.11;39.10;99174.55;1778823;80;20951;-47
2022/07/15 09:25:11;;;;;;;9.13;0.90;;;;;;;20.04;39.34;99203.66;1778238;81;20950;-50
2022/07/15 09:27:42;;;;;;;3.15;0.70;;;;;;;20.40;39.93;99177.55;1778278;80;20983;-42
2022/07/15 09:33:34;;;;;;;12.93;0.93;;;;;;;21.00;37.55;99181.82;1778410;81;20951;-44
2022/07/15 09:36:22;;;;;;;6.67;0.95;;;;;;;20.75;38.36;99195.97;1773976;80;20986;-41
2022/07/15 09:38:55;;;;;;;8.18;0.80;;;;;;;20.45;38.51;99211.33;1747256;82;20999;-51
2022/07/15 09:41:32;;;;;;;5.37;0.80;;;;;;;20.20;38.53;99208.37;1747358;82;20972;-49
2022/07/15 09:44:06;;;;;;;2.20;0.93;;;;;;;20.05;38.75;99212.53;1745140;80;20993;-45
2022/07/15 09:46:57;;;;;;;6.30;0.90;;;;;;;19.93;39.60;99203.86;1726457;81;21003;-48
2022/07/15 09:49:32;;;;;;;1.62;0.68;;;;;;;19.61;39.53;99211.74;1716603;83;20997;-46
2022/07/15 09:52:07;;;;;;;4.65;0.88;;;;;;;20.00;39.88;99208.13;1730217;83;21093;-40
2022/07/15 09:54:37;;;;;;;5.83;0.80;;;;;;;20.05;39.74;99205.86;1746459;82;21037;-47
2022/07/15 09:57:07;;;;;;;3.15;0.62;;;;;;;20.00;39.01;99210.29;1746653;82;20997;-48
2022/07/15 09:59:33;;;;;;;6.58;0.90;;;;;;;19.84;39.32;99217.58;1746550;82;21494;-37
2022/07/15 10:01:59;;;;;;;1.87;0.90;;;;;;;19.86;39.03;99214.77;1746478;82;21009;-44
2022/07/15 10:04:28;;;;;;;3.60;1.00;;;;;;;19.85;39.05;99217.11;1746358;82;21029;-47
2022/07/15 10:06:56;;;;;;;5.05;1.10;;;;;;;19.82;39.03;99223.56;1746577;82;21154;-50
2022/07/15 10:09:25;;;;;;;5.80;0.75;;;;;;;19.83;38.84;99221.25;1746354;82;20982;-44
2022/07/15 10:11:55;;;;;;;3.47;0.68;;;;;;;20.05;39.44;99227.21;1746475;82;21343;-53
2022/07/15 10:14:52;;;;;;;3.20;0.70;;;;;;;20.61;36.85;99224.90;1746417;82;20985;-42
2022/07/15 10:17:49;;;;;;;1.60;0.55;;;;;;;20.63;37.55;99240.28;1746472;82;21021;-47
2022/07/15 10:20:29;;;;;;;1.72;0.50;;;;;;;20.37;37.18;99228.59;1746084;82;21542;-51
2022/07/15 10:23:34;;;;;;;3.58;0.82;;;;;;;20.07;38.09;99227.40;1722028;82;20977;-40
2022/07/15 10:26:17;;;;;;;0.70;0.50;;;;;;;19.91;37.19;99236.02;1746775;81;21424;-41
2022/07/15 10:29:04;;;;;;;2.35;0.65;;;;;;;19.85;37.83;99240.63;1738601;81;20981;-55
2022/07/15 10:31:33;;;;;;;1.77;0.70;;;;;;;19.83;38.26;99238.59;1737650;82;21004;-37
2022/07/15 10:34:13;;;;;;;6.10;0.60;;;;;;;20.08;37.79;99236.23;1736786;81;21774;-43
2022/07/15 10:36:51;;;;;;;3.85;0.82;;;;;;;20.22;37.99;99236.26;1736719;82;21088;-46
2022/07/15 10:39:20;;;;;;;1.52;0.70;;;;;;;20.62;37.76;99226.56;1739510;82;20970;-44
2022/07/15 10:41:56;;;;;;;4.53;0.70;;;;;;;20.56;37.55;99228.98;1740890;82;21408;-51
2022/07/15 10:44:24;;;;;;;3.10;0.53;;;;;;;20.34;37.86;99228.41;1740515;82;21014;-41
2022/07/15 10:47:17;;;;;;;7.55;0.80;;;;;;;20.25;37.66;99242.65;1738664;82;21530;-45
2022/07/15 10:49:47;;;;;;;4.20;0.70;;;;;;;20.11;37.57;99246.63;1725423;81;21688;-45
2022/07/15 10:52:31;;;;;;;4.67;0.80;;;;;;;19.84;37.62;99248.77;1736980;82;20957;-39
2022/07/15 10:55:03;;;;;;;4.22;0.60;;;;;;;19.81;38.07;99244.58;1736880;82;20972;-44
2022/07/15 10:57:49;;;;;;;4.05;0.85;;;;;;;19.74;38.19;99240.80;1736707;82;21000;-50
2022/07/15 11:00:33;;;;;;;3.30;0.93;;;;;;;19.83;38.42;99241.27;1736948;82;20972;-42
2022/07/15 11:03:14;;;;;;;5.47;1.02;;;;;;;19.79;38.25;99251.02;1736694;82;20989;-44
2022/07/15 11:05:56;;;;;;;5.72;0.80;;;;;;;19.67;38.12;99239.67;1738089;82;21039;-53
2022/07/15 11:08:40;;;;;;;2.60;0.70;;;;;;;19.41;38.68;99254.08;1724871;81;21000;-40
2022/07/15 11:11:20;;;;;;;2.55;0.80;;;;;;;19.43;38.29;99246.78;1710371;84;20997;-48
2022/07/15 11:13:48;;;;;;;7.12;1.32;;;;;;;19.68;38.56;99240.86;1719830;81;20991;-37
2022/07/15 11:16:17;;;;;;;2.47;0.70;;;;;;;20.25;37.29;99246.15;1693812;82;20952;-41
2022/07/15 11:18:49;;;;;;;2.33;0.60;;;;;;;20.43;37.47;99246.20;1707675;84;20972;-42
2022/07/15 11:21:16;;;;;;;2.95;0.72;;;;;;;20.37;36.28;99250.78;1707680;83;20965;-48
2022/07/15 11:23:49;;;;;;;2.17;0.62;;;;;;;20.20;37.01;99253.76;1707661;83;20973;-42
2022/07/15 11:26:15;;;;;;;3.70;0.90;;;;;;;20.23;37.13;99261.48;1707576;83;21478;-50
2022/07/15 11:28:55;;;;;;;4.05;0.68;;;;;;;20.43;37.07;99250.68;1707596;83;21529;-47
2022/07/15 11:31:23;;;;;;;6.80;0.62;;;;;;;20.55;37.30;99249.49;1707666;83;20997;-47
2022/07/15 11:33:54;;;;;;;2.72;0.90;;;;;;;20.71;37.15;99247.03;1707581;83;20996;-48
2022/07/15 11:36:22;;;;;;;3.87;0.78;;;;;;;20.56;36.91;99250.36;1707724;84;21024;-50
2022/07/15 11:38:48;;;;;;;2.22;0.90;;;;;;;20.29;36.23;99254.20;1729625;80;21465;-52
2022/07/15 11:46:55;;;;;;;3.95;0.82;;;;;;;20.11;37.54;99257.31;1747812;82;21864;-50
2022/07/15 11:49:42;;;;;;;3.10;0.70;;;;;;;20.18;36.79;99270.42;1747805;82;20962;-43
2022/07/15 11:52:12;;;;;;;2.33;0.68;;;;;;;20.07;36.54;99260.77;1748125;82;21009;-41
2022/07/15 11:54:41;;;;;;;3.52;0.60;;;;;;;20.32;36.89;99251.75;1748282;81;20983;-46
2022/07/15 11:57:10;;;;;;;3.02;0.65;;;;;;;20.86;36.36;99249.18;1748357;81;21058;-40